createdAt,value
2018-04-13T00:00:35.482Z,36.37
2018-04-13T00:03:03.573Z,39.10
2018-04-13T00:05:31.022Z,39.20
2018-04-13T00:07:58.868Z,43.10
2018-04-13T00:10:26.324Z,39.90
2018-04-13T00:12:55.088Z,50.33
2018-04-13T00:15:22.593Z,33.93
2018-04-13T00:17:50.446Z,45.57
2018-04-13T00:20:19.061Z,38.10
2018-04-13T00:22:46.741Z,50.97
2018-04-13T00:25:14.228Z,55.93
2018-04-13T00:27:42.303Z,51.80
2018-04-13T00:30:10.537Z,54.47
2018-04-13T00:32:38.825Z,51.43
2018-04-13T00:35:06.304Z,54.53
2018-04-13T00:37:33.776Z,64.40
2018-04-13T00:40:01.231Z,61.37
2018-04-13T00:42:28.685Z,67.40
2018-04-13T00:44:56.591Z,59.70
2018-04-13T00:47:24.850Z,52.07
2018-04-13T00:49:53.093Z,49.03
2018-04-13T00:52:20.551Z,54.67
2018-04-13T00:54:47.982Z,58.70
2018-04-13T00:57:15.848Z,74.37
2018-04-13T00:59:44.075Z,66.97
2018-04-13T01:02:11.560Z,87.00
2018-04-13T01:04:40.805Z,78.27
2018-04-13T01:07:10.868Z,67.83
2018-04-13T01:09:38.311Z,55.53
2018-04-13T01:12:06.317Z,59.27
2018-04-13T01:14:34.590Z,56.10
2018-04-13T01:17:02.055Z,65.33
2018-04-13T01:19:29.553Z,79.60
2018-04-13T01:21:57.013Z,78.10
2018-04-13T01:24:40.321Z,77.77
2018-04-13T01:27:10.023Z,64.47
2018-04-13T01:29:37.475Z,58.97
2018-04-13T01:32:05.280Z,50.33
2018-04-13T01:34:32.788Z,73.00
2018-04-13T01:37:01.720Z,81.57
2018-04-13T01:39:29.301Z,86.00
2018-04-13T01:41:56.757Z,93.53
2018-04-13T01:44:25.273Z,123.50
2018-04-13T01:46:53.703Z,112.90
2018-04-13T01:49:21.232Z,99.93
2018-04-13T01:51:48.690Z,104.27
2018-04-13T01:54:17.302Z,110.23
2018-04-13T01:56:45.539Z,95.93
2018-04-13T01:59:13.024Z,110.97
2018-04-13T02:01:40.774Z,121.37
2018-04-13T02:04:08.232Z,138.07
2018-04-13T02:06:35.753Z,141.03
2018-04-13T02:09:03.917Z,132.77
2018-04-13T02:11:31.358Z,130.80
2018-04-13T02:13:59.583Z,117.97
2018-04-13T02:16:27.071Z,111.30
2018-04-13T02:18:55.299Z,101.97
2018-04-13T02:21:23.900Z,110.93
2018-04-13T02:23:51.385Z,102.13
2018-04-13T02:26:18.846Z,102.60
2018-04-13T02:28:46.702Z,97.00
2018-04-13T02:31:14.166Z,79.93
2018-04-13T02:33:42.962Z,93.07
2018-04-13T02:36:10.407Z,85.07
2018-04-13T02:38:38.251Z,86.50
2018-04-13T02:41:06.106Z,106.83
2018-04-13T02:43:33.963Z,116.03
2018-04-13T02:46:01.508Z,138.27
2018-04-13T02:48:30.131Z,134.90
2018-04-13T02:50:58.775Z,132.97
2018-04-13T02:53:26.448Z,93.10
2018-04-13T02:55:54.304Z,105.37
2018-04-13T02:58:21.760Z,117.10
2018-04-13T03:00:49.240Z,104.73
2018-04-13T03:03:16.734Z,102.37
2018-04-13T03:05:44.198Z,111.90
2018-04-13T03:08:11.686Z,102.13
2018-04-13T03:10:39.557Z,103.40
2018-04-13T03:13:06.996Z,108.60
2018-04-13T03:15:35.365Z,111.27
2018-04-13T03:18:03.614Z,128.43
2018-04-13T03:20:31.825Z,149.33
2018-04-13T03:22:59.294Z,172.37
2018-04-13T03:25:26.773Z,168.83
2018-04-13T03:27:54.289Z,163.87
2018-04-13T03:30:21.795Z,160.43
2018-04-13T03:32:49.297Z,152.00
2018-04-13T03:35:16.754Z,145.80
2018-04-13T03:37:46.711Z,157.87
2018-04-13T03:40:14.610Z,157.73
2018-04-13T03:42:43.573Z,157.00
2018-04-13T03:45:11.037Z,175.83
2018-04-13T03:47:38.877Z,146.73
2018-04-13T03:50:06.362Z,144.67
2018-04-13T03:52:33.842Z,146.40
2018-04-13T03:55:01.296Z,162.00
2018-04-13T03:57:28.792Z,160.53
2018-04-13T03:59:56.293Z,137.53
2018-04-13T04:02:23.741Z,132.93
2018-04-13T04:04:51.969Z,140.10
2018-04-13T04:07:20.238Z,146.17
2018-04-13T04:09:48.107Z,124.93
2018-04-13T04:12:15.946Z,110.07
2018-04-13T04:14:43.821Z,95.57
2018-04-13T04:17:11.296Z,74.40
2018-04-13T04:19:50.911Z,72.60
2018-04-13T04:22:32.045Z,74.17
2018-04-13T04:25:11.754Z,71.43
2018-04-13T04:27:39.961Z,83.13
2018-04-13T04:30:08.565Z,85.73
2018-04-13T04:32:36.022Z,98.27
2018-04-13T04:35:04.305Z,88.77
2018-04-13T04:37:31.750Z,93.93
2018-04-13T04:39:59.984Z,102.80
2018-04-13T04:42:27.436Z,100.27
2018-04-13T04:44:54.987Z,88.23
2018-04-13T04:47:23.283Z,91.73
2018-04-13T04:49:50.745Z,86.87
2018-04-13T04:52:19.151Z,86.33
2018-04-13T04:54:46.599Z,84.37
2018-04-13T04:57:14.432Z,86.80
2018-04-13T04:59:41.881Z,83.87
2018-04-13T05:02:09.333Z,78.03
2018-04-13T05:04:36.853Z,76.20
2018-04-13T05:07:04.297Z,75.00
2018-04-13T05:09:31.975Z,71.57
2018-04-13T05:12:00.283Z,75.40
2018-04-13T05:14:27.679Z,65.40
2018-04-13T05:16:55.888Z,72.33
2018-04-13T05:19:23.361Z,63.47
2018-04-13T05:21:50.796Z,62.97
2018-04-13T05:24:19.015Z,51.13
2018-04-13T05:26:47.236Z,46.30
2018-04-13T05:29:15.119Z,52.47
2018-04-13T05:31:42.560Z,45.77
2018-04-13T05:34:10.790Z,46.03
2018-04-13T05:36:39.049Z,46.07
2018-04-13T05:39:06.502Z,48.10
2018-04-13T05:41:33.948Z,51.00
2018-04-13T05:44:02.240Z,49.83
2018-04-13T05:46:30.015Z,49.97
2018-04-13T05:48:58.645Z,41.23
2018-04-13T05:51:26.988Z,46.90
2018-04-13T05:53:54.449Z,40.53
2018-04-13T05:56:22.710Z,38.97
2018-04-13T05:58:52.187Z,39.73
2018-04-13T06:01:20.193Z,39.10
2018-04-13T06:03:48.384Z,37.17
2018-04-13T06:06:17.461Z,43.03
2018-04-13T06:08:46.358Z,34.27
2018-04-13T06:11:13.806Z,34.70
2018-04-13T06:13:41.245Z,37.37
2018-04-13T06:16:09.515Z,45.87
2018-04-13T06:18:36.960Z,50.33
2018-04-13T06:21:04.792Z,52.50
2018-04-13T06:23:32.604Z,44.83
2018-04-13T06:26:00.142Z,66.33
2018-04-13T06:28:27.603Z,37.90
2018-04-13T06:30:55.061Z,36.10
2018-04-13T06:33:22.908Z,32.97
2018-04-13T06:35:51.113Z,35.63
2018-04-13T06:38:19.324Z,41.20
2018-04-13T06:40:46.847Z,34.63
2018-04-13T06:43:14.298Z,39.27
2018-04-13T06:45:42.158Z,38.67
2018-04-13T06:48:09.705Z,40.93
2018-04-13T06:50:37.144Z,38.27
2018-04-13T06:53:06.160Z,38.17
2018-04-13T06:55:34.381Z,38.83
2018-04-13T06:58:01.832Z,40.13
2018-04-13T07:00:29.669Z,36.80
2018-04-13T07:02:57.525Z,36.30
2018-04-13T07:05:24.993Z,31.93
2018-04-13T07:07:52.494Z,31.00
2018-04-13T07:10:20.721Z,34.07
2018-04-13T07:12:48.199Z,29.50
2018-04-13T07:15:16.721Z,30.80
2018-04-13T07:17:44.223Z,24.67
2018-04-13T07:20:12.474Z,29.47
2018-04-13T07:22:39.941Z,20.03
2018-04-13T07:25:07.451Z,20.90
2018-04-13T07:27:34.938Z,25.60
2018-04-13T07:30:03.518Z,20.10
2018-04-13T07:32:31.045Z,21.03
2018-04-13T07:35:00.520Z,14.20
2018-04-13T07:37:27.574Z,13.70
2018-04-13T07:39:55.026Z,21.77
2018-04-13T07:42:22.494Z,17.63
2018-04-13T07:44:50.480Z,16.70
2018-04-13T07:47:17.841Z,16.97
2018-04-13T07:49:46.066Z,18.93
2018-04-13T07:52:14.096Z,17.37
2018-04-13T07:54:41.371Z,22.60
2018-04-13T07:57:09.591Z,25.70
2018-04-13T07:59:37.048Z,35.43
2018-04-13T08:02:04.937Z,35.00
2018-04-13T08:04:32.369Z,25.17
2018-04-13T08:07:00.599Z,27.60
2018-04-13T08:09:28.805Z,26.57
2018-04-13T08:11:55.908Z,28.57
2018-04-13T08:14:23.366Z,24.10
2018-04-13T08:16:51.572Z,28.57
2018-04-13T08:19:19.038Z,33.73
2018-04-13T08:21:47.273Z,20.23
2018-04-13T08:24:14.741Z,32.00
2018-04-13T08:26:42.195Z,24.87
2018-04-13T08:29:10.789Z,22.03
2018-04-13T08:31:38.245Z,27.53
2018-04-13T08:34:05.707Z,34.50
2018-04-13T08:36:33.185Z,30.17
2018-04-13T08:39:00.630Z,37.50
2018-04-13T08:41:28.974Z,40.93
2018-04-13T08:43:56.429Z,40.97
2018-04-13T08:46:23.892Z,42.20
2018-04-13T08:48:51.809Z,56.83
2018-04-13T08:51:20.363Z,47.90
2018-04-13T08:53:48.325Z,54.50
2018-04-13T08:56:15.783Z,57.83
2018-04-13T08:58:43.267Z,72.67
2018-04-13T09:01:11.504Z,73.67
2018-04-13T09:03:39.710Z,87.63
2018-04-13T09:06:07.950Z,73.20
2018-04-13T09:08:35.445Z,79.93
2018-04-13T09:11:03.290Z,82.10
2018-04-13T09:13:31.568Z,90.33
2018-04-13T09:15:59.036Z,90.73
2018-04-13T09:18:26.478Z,88.20
2018-04-13T09:20:54.731Z,87.83
2018-04-13T09:23:22.970Z,77.77
2018-04-13T09:25:50.463Z,82.27
2018-04-13T09:28:18.334Z,96.57
2018-04-13T09:30:45.789Z,97.03
2018-04-13T09:33:13.264Z,88.60
2018-04-13T09:35:51.788Z,101.37
2018-04-13T09:38:19.237Z,95.37
2018-04-13T09:40:46.694Z,107.23
2018-04-13T09:43:15.076Z,91.83
2018-04-13T09:45:42.567Z,82.07
2018-04-13T09:48:11.234Z,78.23
2018-04-13T09:50:38.729Z,80.87
2018-04-13T09:53:07.008Z,63.37
2018-04-13T09:55:34.843Z,75.87
2018-04-13T09:58:02.709Z,61.27
2018-04-13T10:00:30.158Z,65.17
2018-04-13T10:03:13.300Z,71.03
2018-04-13T10:05:41.225Z,68.07
2018-04-13T10:08:08.722Z,55.30
2018-04-13T10:10:36.956Z,57.20
2018-04-13T10:13:04.810Z,50.07
2018-04-13T10:15:32.671Z,68.53
2018-04-13T10:18:00.141Z,54.63
2018-04-13T10:20:28.365Z,46.20
2018-04-13T10:22:56.598Z,41.30
2018-04-13T10:25:24.824Z,51.40
2018-04-13T10:27:53.493Z,54.23
2018-04-13T10:30:20.947Z,46.87
2018-04-13T10:32:49.172Z,43.57
2018-04-13T10:35:16.640Z,42.83
2018-04-13T10:37:44.196Z,44.73
2018-04-13T10:40:11.678Z,45.23
2018-04-13T10:42:39.883Z,44.17
2018-04-13T10:45:08.104Z,47.63
2018-04-13T10:47:37.154Z,42.57
2018-04-13T10:50:05.603Z,39.50
2018-04-13T10:52:33.533Z,46.70
2018-04-13T10:55:01.026Z,51.13
2018-04-13T10:57:28.499Z,47.40
2018-04-13T11:00:00.942Z,40.53
2018-04-13T11:02:29.379Z,38.80
2018-04-13T11:04:57.654Z,37.47
2018-04-13T11:07:25.133Z,42.27
2018-04-13T11:09:54.540Z,43.63
2018-04-13T11:12:22.068Z,40.53
2018-04-13T11:14:49.769Z,39.20
2018-04-13T11:17:17.303Z,40.37
2018-04-13T11:19:44.753Z,37.20
2018-04-13T11:22:12.227Z,32.83
2018-04-13T11:24:39.706Z,32.47
2018-04-13T11:27:07.557Z,43.83
2018-04-13T11:29:35.805Z,31.43
2018-04-13T11:32:03.650Z,26.27
2018-04-13T11:34:31.517Z,21.70
2018-04-13T11:36:59.378Z,24.67
2018-04-13T11:39:27.602Z,27.17
2018-04-13T11:41:56.572Z,13.20
2018-04-13T11:44:24.841Z,16.63
2018-04-13T11:46:52.283Z,11.77
2018-04-13T11:49:19.749Z,6.10
2018-04-13T11:51:48.043Z,10.60
2018-04-13T11:54:15.443Z,5.13
2018-04-13T11:56:46.510Z,6.90
2018-04-13T11:59:14.013Z,4.23
2018-04-13T12:01:42.975Z,4.30
2018-04-13T12:04:10.429Z,12.63
2018-04-13T12:06:38.685Z,3.93
2018-04-13T12:09:06.537Z,5.40
2018-04-13T12:11:33.969Z,6.07
2018-04-13T12:14:01.442Z,6.50
2018-04-13T12:16:28.987Z,4.83
2018-04-13T12:18:56.432Z,5.73
2018-04-13T12:21:24.311Z,4.20
2018-04-13T12:23:52.180Z,8.30
2018-04-13T12:26:20.389Z,4.20
2018-04-13T12:28:48.613Z,4.40
2018-04-13T12:31:16.495Z,3.53
2018-04-13T12:33:44.347Z,5.50
2018-04-13T12:38:47.110Z,6.03
2018-04-13T12:41:14.957Z,3.83
2018-04-13T12:43:42.819Z,6.17
2018-04-13T12:46:10.670Z,4.00
2018-04-13T12:48:38.926Z,3.67
2018-04-13T12:51:06.761Z,8.50
2018-04-13T12:53:34.605Z,9.23
2018-04-13T12:56:02.852Z,5.70
2018-04-13T12:58:31.417Z,4.70
2018-04-13T13:00:58.901Z,10.90
2018-04-13T13:03:26.352Z,11.40
2018-04-13T13:05:53.814Z,4.10
2018-04-13T13:08:21.255Z,4.30
2018-04-13T13:10:48.732Z,3.90
2018-04-13T13:13:16.180Z,9.40
2018-04-13T13:15:43.648Z,7.90
2018-04-13T13:18:11.830Z,6.83
2018-04-13T13:20:39.261Z,5.10
2018-04-13T13:23:06.719Z,11.20
2018-04-13T13:25:34.581Z,5.33
2018-04-13T13:28:02.018Z,5.90
2018-04-13T13:30:29.474Z,5.17
2018-04-13T13:32:57.782Z,5.43
2018-04-13T13:35:26.027Z,8.03
2018-04-13T13:37:53.491Z,8.00
2018-04-13T13:40:21.365Z,4.77
2018-04-13T13:42:49.216Z,5.20
2018-04-13T13:45:16.670Z,4.03
2018-04-13T13:47:44.882Z,9.33
2018-04-13T13:50:12.768Z,6.10
2018-04-13T13:52:41.361Z,10.70
2018-04-13T13:55:08.811Z,3.90
2018-04-13T13:57:36.258Z,4.30
2018-04-13T14:00:04.474Z,11.43
2018-04-13T14:02:31.931Z,5.00
2018-04-13T14:05:00.134Z,4.90
2018-04-13T14:07:27.580Z,4.53
2018-04-13T14:10:12.079Z,11.97
2018-04-13T14:12:40.302Z,8.73
2018-04-13T14:15:10.328Z,4.20
2018-04-13T14:17:42.197Z,4.40
2018-04-13T14:20:09.803Z,10.93
2018-04-13T14:22:37.620Z,4.40
2018-04-13T14:25:05.086Z,6.07
2018-04-13T14:27:32.937Z,4.40
2018-04-13T14:30:00.790Z,5.27
2018-04-13T14:32:29.099Z,5.40
2018-04-13T14:34:56.585Z,3.67
2018-04-13T14:37:24.026Z,7.17
2018-04-13T14:39:51.869Z,4.03
2018-04-13T14:42:20.828Z,6.27
2018-04-13T14:44:48.325Z,6.13
2018-04-13T14:47:15.789Z,6.03
2018-04-13T14:49:44.036Z,3.80
2018-04-13T14:52:11.629Z,6.07
2018-04-13T14:54:39.085Z,4.60
2018-04-13T14:57:06.766Z,5.00
2018-04-13T14:59:34.683Z,9.73
2018-04-13T15:02:02.145Z,5.17
2018-04-13T15:04:29.589Z,4.23
2018-04-13T15:06:57.075Z,3.50
2018-04-13T15:09:24.542Z,4.30
2018-04-13T15:11:53.370Z,5.60
2018-04-13T15:14:20.883Z,6.73
2018-04-13T15:16:48.343Z,6.30
2018-04-13T15:19:15.776Z,4.50
2018-04-13T15:21:43.983Z,7.50
2018-04-13T15:24:12.223Z,10.63
2018-04-13T15:26:40.085Z,9.03
2018-04-13T15:29:08.298Z,5.60
2018-04-13T15:31:35.809Z,8.90
2018-04-13T15:34:03.331Z,4.30
2018-04-13T15:36:30.974Z,6.00
2018-04-13T15:38:58.910Z,3.93
2018-04-13T15:41:26.374Z,5.80
2018-04-13T15:43:54.595Z,4.43
2018-04-13T15:46:22.860Z,5.90
2018-04-13T15:48:51.069Z,8.37
2018-04-13T15:51:18.553Z,4.40
2018-04-13T15:53:46.010Z,5.67
2018-04-13T15:56:13.450Z,7.80
2018-04-13T15:58:44.296Z,8.07
2018-04-13T16:01:12.617Z,4.13
2018-04-13T16:03:40.118Z,4.40
2018-04-13T16:06:09.394Z,6.23
2018-04-13T16:08:41.017Z,4.80
2018-04-13T16:11:08.453Z,7.10
2018-04-13T16:13:35.897Z,4.83
2018-04-13T16:16:03.368Z,3.77
2018-04-13T16:18:39.235Z,3.50
2018-04-13T16:21:06.684Z,3.53
2018-04-13T16:23:34.126Z,13.53
2018-04-13T16:26:03.738Z,5.63
2018-04-13T16:28:31.966Z,7.23
2018-04-13T16:31:00.169Z,6.20
2018-04-13T16:33:28.371Z,4.57
2018-04-13T16:35:55.824Z,12.70
2018-04-13T16:38:23.669Z,5.67
2018-04-13T16:40:52.957Z,4.20
2018-04-13T16:43:20.586Z,4.30
2018-04-13T16:45:48.024Z,3.80
2018-04-13T16:48:16.239Z,3.37
2018-04-13T16:50:43.712Z,3.90
2018-04-13T16:53:11.423Z,3.57
2018-04-13T16:55:39.576Z,7.17
2018-04-13T16:58:07.029Z,3.57
2018-04-13T17:00:36.014Z,6.63
2018-04-13T17:03:03.478Z,6.00
2018-04-13T17:11:00.237Z,4.00
2018-04-13T17:13:28.089Z,4.10
2018-04-13T17:15:56.420Z,5.10
2018-04-13T17:18:24.295Z,6.93
2018-04-13T17:20:52.541Z,3.07
2018-04-13T17:23:20.679Z,4.17
2018-04-13T17:25:48.553Z,6.83
2018-04-13T17:28:16.749Z,4.47
2018-04-13T17:30:45.013Z,5.13
2018-04-13T17:33:12.493Z,2.77
2018-04-13T17:35:40.770Z,4.90
2018-04-13T17:38:09.040Z,3.30
2018-04-13T17:40:37.268Z,4.43
2018-04-13T17:43:04.848Z,4.80
2018-04-13T17:45:32.616Z,4.97
2018-04-13T17:48:00.148Z,6.37
2018-04-13T17:50:30.075Z,7.80
2018-04-13T17:52:57.938Z,11.83
2018-04-13T17:55:26.148Z,3.10
2018-04-13T17:57:53.820Z,3.30
2018-04-13T18:00:24.139Z,3.80
2018-04-13T18:02:52.775Z,5.13
2018-04-13T18:05:20.636Z,3.83
2018-04-13T18:07:51.802Z,10.40
2018-04-13T18:10:20.218Z,5.00
2018-04-13T18:12:47.817Z,7.47
2018-04-13T18:15:17.009Z,6.70
2018-04-13T18:17:44.571Z,11.00
2018-04-13T18:20:14.520Z,6.23
2018-04-13T18:22:41.977Z,6.30
2018-04-13T18:25:10.217Z,15.10
2018-04-13T18:27:37.672Z,10.83
2018-04-13T18:30:07.911Z,11.53
2018-04-13T18:32:36.321Z,9.87
2018-04-13T18:35:04.824Z,11.33
2018-04-13T18:37:33.161Z,7.63
2018-04-13T18:40:01.470Z,12.10
2018-04-13T18:42:30.130Z,5.80
2018-04-13T18:44:57.698Z,6.00
2018-04-13T18:47:26.436Z,14.17
2018-04-13T18:49:54.732Z,11.80
2018-04-13T18:52:22.971Z,5.20
2018-04-13T18:54:50.433Z,11.97
2018-04-13T18:57:18.909Z,12.63
2018-04-13T18:59:47.549Z,9.87
2018-04-13T19:02:15.934Z,5.37
2018-04-13T19:04:43.429Z,8.20
2018-04-13T19:07:11.912Z,7.50
2018-04-13T19:09:39.995Z,36.33
2018-04-13T19:12:08.265Z,10.47
2018-04-13T19:14:35.790Z,4.90
2018-04-13T19:17:04.515Z,11.43
2018-04-13T19:19:32.058Z,9.13
2018-04-13T19:22:00.129Z,10.60
2018-04-13T19:24:27.608Z,16.07
2018-04-13T19:26:56.090Z,6.57
2018-04-13T19:29:23.586Z,9.20
2018-04-13T19:31:51.802Z,12.80
2018-04-13T19:34:21.273Z,9.20
2018-04-13T19:36:49.132Z,13.37
2018-04-13T19:39:17.212Z,7.03
2018-04-13T19:41:44.783Z,7.87
2018-04-13T19:44:14.664Z,4.50
2018-04-13T19:46:42.551Z,12.50
2018-04-13T19:49:11.591Z,11.93
2018-04-13T19:51:39.223Z,13.20
2018-04-13T19:54:07.051Z,11.50
2018-04-13T19:56:35.479Z,7.40
2018-04-13T19:59:03.040Z,10.10
2018-04-13T21:20:28.373Z,6.27
2018-04-13T21:22:56.223Z,8.50
2018-04-13T21:25:24.521Z,12.13
2018-04-13T21:28:11.108Z,7.10
2018-04-13T21:30:40.303Z,9.40
2018-04-13T21:33:09.825Z,8.03
2018-04-13T21:35:37.342Z,6.53
2018-04-13T21:38:04.826Z,6.77
2018-04-13T21:40:33.152Z,8.07
2018-04-13T21:43:00.707Z,11.70
2018-04-13T21:45:29.049Z,6.40
2018-04-13T21:47:56.506Z,7.17
2018-04-13T21:50:24.366Z,17.40
2018-04-13T21:52:52.812Z,7.87
2018-04-13T21:55:21.031Z,8.60
2018-04-13T21:57:49.294Z,6.20
2018-04-13T22:00:16.818Z,6.77
2018-04-13T22:02:45.424Z,10.00
2018-04-13T22:05:14.493Z,7.23
2018-04-13T22:07:41.964Z,6.27
2018-04-13T22:10:09.413Z,9.63
2018-04-13T22:12:49.097Z,5.60
2018-04-13T22:15:23.966Z,8.10
2018-04-13T22:17:51.433Z,7.40
2018-04-13T22:20:25.771Z,13.17
2018-04-13T22:22:53.221Z,12.50
2018-04-13T22:25:20.689Z,9.13
2018-04-13T22:27:48.242Z,15.90
2018-04-13T22:30:16.142Z,10.10
2018-04-13T22:32:43.596Z,22.57
2018-04-13T22:35:11.100Z,5.10
2018-04-13T22:37:39.235Z,8.17
2018-04-13T22:40:07.011Z,5.63
2018-04-13T22:42:34.984Z,6.00
2018-04-13T22:45:02.959Z,8.23
2018-04-13T22:47:31.326Z,6.90
2018-04-13T22:49:59.248Z,8.30
2018-04-13T22:52:27.804Z,8.53
2018-04-13T22:54:55.235Z,6.30
2018-04-13T22:57:22.694Z,10.00
2018-04-13T22:59:50.154Z,5.77
2018-04-13T23:02:17.604Z,7.10
2018-04-13T23:04:45.123Z,5.73
2018-04-13T23:07:13.339Z,7.60
2018-04-13T23:09:40.807Z,6.93
2018-04-13T23:12:08.549Z,7.33
2018-04-13T23:14:36.777Z,5.90
2018-04-13T23:17:04.262Z,5.60
2018-04-13T23:19:32.046Z,9.10
2018-04-13T23:22:00.415Z,7.20
2018-04-13T23:24:27.905Z,9.00
2018-04-13T23:26:56.590Z,13.63
2018-04-13T23:29:24.042Z,8.03
2018-04-13T23:31:52.653Z,11.97
2018-04-13T23:34:20.864Z,5.87
2018-04-13T23:36:48.379Z,7.63
2018-04-13T23:39:15.837Z,9.40
2018-04-13T23:41:43.369Z,11.13
2018-04-13T23:44:10.855Z,10.50
2018-04-13T23:46:39.875Z,8.37
2018-04-13T23:49:08.089Z,5.47
2018-04-13T23:51:36.674Z,5.13
2018-04-13T23:54:04.127Z,10.20
2018-04-13T23:56:32.407Z,3.53
2018-04-13T23:58:59.851Z,4.30
